sensor_id;sensor_type;location;lat;lon;timestamp;pressure;altitude;pressure_sealevel;temperature
76381;BMP280;65202;52.520;10.528;2023-01-28T00:01:15;102349.31;;;2.39
76381;BMP280;65202;52.520;10.528;2023-01-28T00:03:43;102351.78;;;2.39
76381;BMP280;65202;52.520;10.528;2023-01-28T00:06:14;102350.63;;;2.44
76381;BMP280;65202;52.520;10.528;2023-01-28T00:08:41;102348.84;;;2.34
76381;BMP280;65202;52.520;10.528;2023-01-28T00:11:11;102348.03;;;2.42
76381;BMP280;65202;52.520;10.528;2023-01-28T00:13:39;102347.31;;;2.43
76381;BMP280;65202;52.520;10.528;2023-01-28T00:16:08;102347.16;;;2.42
76381;BMP280;65202;52.520;10.528;2023-01-28T00:18:36;102349.41;;;2.32
76381;BMP280;65202;52.520;10.528;2023-01-28T00:21:06;102351.91;;;2.16
76381;BMP280;65202;52.520;10.528;2023-01-28T00:23:37;102344.50;;;2.40
76381;BMP280;65202;52.520;10.528;2023-01-28T00:26:09;102337.09;;;2.40
76381;BMP280;65202;52.520;10.528;2023-01-28T00:28:38;102340.53;;;2.25
76381;BMP280;65202;52.520;10.528;2023-01-28T00:31:14;102338.69;;;2.40
76381;BMP280;65202;52.520;10.528;2023-01-28T00:33:44;102342.16;;;2.33
76381;BMP280;65202;52.520;10.528;2023-01-28T00:36:13;102354.88;;;2.21
76381;BMP280;65202;52.520;10.528;2023-01-28T00:38:41;102354.75;;;2.28
76381;BMP280;65202;52.520;10.528;2023-01-28T00:41:14;102349.00;;;2.36
76381;BMP280;65202;52.520;10.528;2023-01-28T00:43:43;102342.38;;;2.28
76381;BMP280;65202;52.520;10.528;2023-01-28T00:46:11;102345.91;;;2.30
76381;BMP280;65202;52.520;10.528;2023-01-28T00:48:40;102344.50;;;2.40
76381;BMP280;65202;52.520;10.528;2023-01-28T00:51:10;102348.31;;;2.21
76381;BMP280;65202;52.520;10.528;2023-01-28T00:53:39;102347.16;;;2.42
76381;BMP280;65202;52.520;10.528;2023-01-28T00:56:08;102344.41;;;2.23
76381;BMP280;65202;52.520;10.528;2023-01-28T00:58:38;102352.56;;;2.22
76381;BMP280;65202;52.520;10.528;2023-01-28T01:01:10;102351.97;;;2.25
76381;BMP280;65202;52.520;10.528;2023-01-28T01:03:39;102355.53;;;2.35
76381;BMP280;65202;52.520;10.528;2023-01-28T01:06:07;102352.66;;;2.39
76381;BMP280;65202;52.520;10.528;2023-01-28T01:08:35;102355.72;;;2.45
76381;BMP280;65202;52.520;10.528;2023-01-28T01:11:06;102360.22;;;2.41
76381;BMP280;65202;52.520;10.528;2023-01-28T01:13:35;102348.88;;;2.43
76381;BMP280;65202;52.520;10.528;2023-01-28T01:16:07;102348.63;;;2.48
76381;BMP280;65202;52.520;10.528;2023-01-28T01:18:38;102344.13;;;2.44
76381;BMP280;65202;52.520;10.528;2023-01-28T01:21:10;102356.72;;;2.15
76381;BMP280;65202;52.520;10.528;2023-01-28T01:23:39;102345.50;;;2.34
76381;BMP280;65202;52.520;10.528;2023-01-28T01:26:07;102341.44;;;2.34
76381;BMP280;65202;52.520;10.528;2023-01-28T01:28:35;102345.50;;;2.34
76381;BMP280;65202;52.520;10.528;2023-01-28T01:31:14;102345.56;;;2.18
76381;BMP280;65202;52.520;10.528;2023-01-28T01:33:45;102345.28;;;2.24
76381;BMP280;65202;52.520;10.528;2023-01-28T01:36:14;102354.97;;;1.75
76381;BMP280;65202;52.520;10.528;2023-01-28T01:38:44;102351.69;;;2.06
76381;BMP280;65202;52.520;10.528;2023-01-28T01:41:22;102341.94;;;2.23
76381;BMP280;65202;52.520;10.528;2023-01-28T01:44:00;102348.22;;;2.28
76381;BMP280;65202;52.520;10.528;2023-01-28T01:46:35;102343.09;;;2.18
76381;BMP280;65202;52.520;10.528;2023-01-28T01:49:21;102361.31;;;2.27
76381;BMP280;65202;52.520;10.528;2023-01-28T01:51:57;102359.88;;;2.29
76381;BMP280;65202;52.520;10.528;2023-01-28T01:54:33;102362.50;;;2.31
76381;BMP280;65202;52.520;10.528;2023-01-28T01:57:04;102370.22;;;2.34
76381;BMP280;65202;52.520;10.528;2023-01-28T01:59:36;102365.06;;;2.24
76381;BMP280;65202;52.520;10.528;2023-01-28T02:02:06;102377.88;;;2.28
76381;BMP280;65202;52.520;10.528;2023-01-28T02:04:41;102379.31;;;2.26
76381;BMP280;65202;52.520;10.528;2023-01-28T02:07:13;102377.59;;;2.25
76381;BMP280;65202;52.520;10.528;2023-01-28T02:09:42;102372.44;;;2.39
76381;BMP280;65202;52.520;10.528;2023-01-28T02:12:16;102371.69;;;2.40
76381;BMP280;65202;52.520;10.528;2023-01-28T02:14:52;102380.66;;;2.31
76381;BMP280;65202;52.520;10.528;2023-01-28T02:17:24;102369.78;;;2.38
76381;BMP280;65202;52.520;10.528;2023-01-28T02:20:00;102370.25;;;2.18
76381;BMP280;65202;52.520;10.528;2023-01-28T02:23:01;102375.28;;;2.27
76381;BMP280;65202;52.520;10.528;2023-01-28T02:28:54;102377.19;;;2.29
76381;BMP280;65202;52.520;10.528;2023-01-28T02:31:38;102380.78;;;2.24
76381;BMP280;65202;52.520;10.528;2023-01-28T02:40:37;102363.47;;;2.24
76381;BMP280;65202;52.520;10.528;2023-01-28T02:49:18;102363.75;;;2.03
76381;BMP280;65202;52.520;10.528;2023-01-28T02:52:10;102361.09;;;1.78
76381;BMP280;65202;52.520;10.528;2023-01-28T02:58:35;102351.41;;;2.27
76381;BMP280;65202;52.520;10.528;2023-01-28T03:01:37;102365.13;;;2.32
76381;BMP280;65202;52.520;10.528;2023-01-28T03:04:22;102366.44;;;2.13
76381;BMP280;65202;52.520;10.528;2023-01-28T03:07:00;102367.31;;;2.14
76381;BMP280;65202;52.520;10.528;2023-01-28T03:09:31;102355.50;;;2.11
76381;BMP280;65202;52.520;10.528;2023-01-28T03:12:06;102360.47;;;2.11
76381;BMP280;65202;52.520;10.528;2023-01-28T03:15:09;102354.31;;;2.23
76381;BMP280;65202;52.520;10.528;2023-01-28T03:21:07;102357.75;;;2.17
76381;BMP280;65202;52.520;10.528;2023-01-28T03:24:04;102353.22;;;2.13
76381;BMP280;65202;52.520;10.528;2023-01-28T03:27:02;102341.81;;;2.22
76381;BMP280;65202;52.520;10.528;2023-01-28T03:29:56;102335.97;;;2.21
76381;BMP280;65202;52.520;10.528;2023-01-28T03:32:46;102344.56;;;2.25
76381;BMP280;65202;52.520;10.528;2023-01-28T03:35:34;102354.66;;;1.72
76381;BMP280;65202;52.520;10.528;2023-01-28T03:38:21;102347.69;;;1.91
76381;BMP280;65202;52.520;10.528;2023-01-28T03:40:54;102359.19;;;1.76
76381;BMP280;65202;52.520;10.528;2023-01-28T03:43:27;102357.06;;;2.02
76381;BMP280;65202;52.520;10.528;2023-01-28T03:45:55;102355.94;;;2.07
76381;BMP280;65202;52.520;10.528;2023-01-28T03:48:24;102354.56;;;2.18
76381;BMP280;65202;52.520;10.528;2023-01-28T03:50:54;102356.88;;;2.16
76381;BMP280;65202;52.520;10.528;2023-01-28T03:53:22;102345.28;;;2.24
76381;BMP280;65202;52.520;10.528;2023-01-28T03:55:51;102349.06;;;2.20
76381;BMP280;65202;52.520;10.528;2023-01-28T03:58:19;102359.44;;;2.09
76381;BMP280;65202;52.520;10.528;2023-01-28T04:00:47;102350.78;;;2.21
76381;BMP280;65202;52.520;10.528;2023-01-28T04:03:16;102365.81;;;2.07
76381;BMP280;65202;52.520;10.528;2023-01-28T04:06:06;102365.16;;;2.17
76381;BMP280;65202;52.520;10.528;2023-01-28T04:08:35;102371.38;;;2.13
76381;BMP280;65202;52.520;10.528;2023-01-28T04:11:02;102366.72;;;2.08
76381;BMP280;65202;52.520;10.528;2023-01-28T04:13:42;102364.69;;;2.12
76381;BMP280;65202;52.520;10.528;2023-01-28T04:16:10;102360.69;;;1.82
76381;BMP280;65202;52.520;10.528;2023-01-28T04:18:38;102371.75;;;1.70
76381;BMP280;65202;52.520;10.528;2023-01-28T04:21:05;102369.75;;;2.05
76381;BMP280;65202;52.520;10.528;2023-01-28T04:23:32;102377.66;;;1.94
76381;BMP280;65202;52.520;10.528;2023-01-28T04:25:59;102377.53;;;2.01
76381;BMP280;65202;52.520;10.528;2023-01-28T04:28:27;102373.50;;;2.02
76381;BMP280;65202;52.520;10.528;2023-01-28T04:30:54;102380.63;;;2.07
76381;BMP280;65202;52.520;10.528;2023-01-28T04:33:21;102381.56;;;2.16
76381;BMP280;65202;52.520;10.528;2023-01-28T04:35:48;102388.09;;;1.92
76381;BMP280;65202;52.520;10.528;2023-01-28T04:38:15;102380.00;;;2.01
76381;BMP280;65202;52.520;10.528;2023-01-28T04:40:43;102389.50;;;2.05
76381;BMP280;65202;52.520;10.528;2023-01-28T04:43:10;102391.34;;;1.99
76381;BMP280;65202;52.520;10.528;2023-01-28T04:45:37;102391.47;;;2.16
76381;BMP280;65202;52.520;10.528;2023-01-28T04:48:04;102382.88;;;2.13
76381;BMP280;65202;52.520;10.528;2023-01-28T04:50:31;102395.25;;;1.97
76381;BMP280;65202;52.520;10.528;2023-01-28T04:52:59;102397.41;;;1.94
76381;BMP280;65202;52.520;10.528;2023-01-28T04:55:26;102391.47;;;2.16
76381;BMP280;65202;52.520;10.528;2023-01-28T04:57:53;102389.31;;;2.19
76381;BMP280;65202;52.520;10.528;2023-01-28T05:00:20;102393.94;;;2.16
76381;BMP280;65202;52.520;10.528;2023-01-28T05:02:47;102389.41;;;2.12
76381;BMP280;65202;52.520;10.528;2023-01-28T05:05:15;102390.59;;;2.16
76381;BMP280;65202;52.520;10.528;2023-01-28T05:07:43;102398.34;;;2.03
76381;BMP280;65202;52.520;10.528;2023-01-28T05:10:16;102387.75;;;2.04
76381;BMP280;65202;52.520;10.528;2023-01-28T05:12:44;102397.22;;;2.08
76381;BMP280;65202;52.520;10.528;2023-01-28T05:15:11;102388.06;;;2.07
76381;BMP280;65202;52.520;10.528;2023-01-28T05:17:39;102391.97;;;2.05
76381;BMP280;65202;52.520;10.528;2023-01-28T05:20:09;102398.59;;;1.98
76381;BMP280;65202;52.520;10.528;2023-01-28T05:22:38;102392.53;;;1.87
76381;BMP280;65202;52.520;10.528;2023-01-28T05:25:06;102385.84;;;2.02
76381;BMP280;65202;52.520;10.528;2023-01-28T05:27:34;102395.94;;;2.12
76381;BMP280;65202;52.520;10.528;2023-01-28T05:30:01;102393.28;;;1.87
76381;BMP280;65202;52.520;10.528;2023-01-28T05:32:28;102403.28;;;2.03
76381;BMP280;65202;52.520;10.528;2023-01-28T05:34:56;102403.84;;;2.01
76381;BMP280;65202;52.520;10.528;2023-01-28T05:37:23;102395.47;;;2.07
76381;BMP280;65202;52.520;10.528;2023-01-28T05:39:50;102384.47;;;2.12
76381;BMP280;65202;52.520;10.528;2023-01-28T05:42:17;102385.34;;;2.13
76381;BMP280;65202;52.520;10.528;2023-01-28T05:44:46;102386.22;;;2.13
76381;BMP280;65202;52.520;10.528;2023-01-28T05:47:13;102384.53;;;1.82
76381;BMP280;65202;52.520;10.528;2023-01-28T05:49:41;102378.50;;;1.95
76381;BMP280;65202;52.520;10.528;2023-01-28T05:52:08;102385.91;;;2.10
76381;BMP280;65202;52.520;10.528;2023-01-28T05:54:35;102384.94;;;2.01
76381;BMP280;65202;52.520;10.528;2023-01-28T05:57:03;102379.94;;;2.08
76381;BMP280;65202;52.520;10.528;2023-01-28T05:59:30;102381.44;;;2.15
76381;BMP280;65202;52.520;10.528;2023-01-28T06:01:57;102377.16;;;2.05
76381;BMP280;65202;52.520;10.528;2023-01-28T06:04:24;102385.34;;;1.97
76381;BMP280;65202;52.520;10.528;2023-01-28T06:06:51;102380.06;;;2.10
76381;BMP280;65202;52.520;10.528;2023-01-28T06:09:19;102378.59;;;2.03
76381;BMP280;65202;52.520;10.528;2023-01-28T06:11:46;102386.28;;;2.06
76381;BMP280;65202;52.520;10.528;2023-01-28T06:14:13;102391.59;;;1.94
76381;BMP280;65202;52.520;10.528;2023-01-28T06:16:40;102392.72;;;1.89
76381;BMP280;65202;52.520;10.528;2023-01-28T06:19:07;102390.44;;;1.99
76381;BMP280;65202;52.520;10.528;2023-01-28T06:21:34;102388.47;;;2.03
76381;BMP280;65202;52.520;10.528;2023-01-28T06:24:02;102393.97;;;2.01
76381;BMP280;65202;52.520;10.528;2023-01-28T06:26:29;102397.31;;;2.01
76381;BMP280;65202;52.520;10.528;2023-01-28T06:28:56;102399.47;;;1.98
76381;BMP280;65202;52.520;10.528;2023-01-28T06:31:23;102393.44;;;1.88
76381;BMP280;65202;52.520;10.528;2023-01-28T06:33:50;102392.72;;;1.89
76381;BMP280;65202;52.520;10.528;2023-01-28T06:36:18;102397.97;;;1.92
76381;BMP280;65202;52.520;10.528;2023-01-28T06:38:45;102395.56;;;2.00
76381;BMP280;65202;52.520;10.528;2023-01-28T06:41:12;102387.84;;;1.82
76381;BMP280;65202;52.520;10.528;2023-01-28T06:43:39;102394.22;;;1.95
76381;BMP280;65202;52.520;10.528;2023-01-28T06:46:07;102393.50;;;1.96
76381;BMP280;65202;52.520;10.528;2023-01-28T06:48:34;102399.47;;;1.98
76381;BMP280;65202;52.520;10.528;2023-01-28T06:51:01;102398.03;;;1.85
76381;BMP280;65202;52.520;10.528;2023-01-28T06:53:28;102398.69;;;1.76
76381;BMP280;65202;52.520;10.528;2023-01-28T06:55:55;102401.94;;;1.98
76381;BMP280;65202;52.520;10.528;2023-01-28T06:58:22;102399.72;;;1.93
76381;BMP280;65202;52.520;10.528;2023-01-28T07:00:50;102391.97;;;2.05
76381;BMP280;65202;52.520;10.528;2023-01-28T07:03:18;102407.38;;;2.03
76381;BMP280;65202;52.520;10.528;2023-01-28T07:05:45;102406.81;;;2.05
76381;BMP280;65202;52.520;10.528;2023-01-28T07:08:13;102407.03;;;2.00
76381;BMP280;65202;52.520;10.528;2023-01-28T07:10:40;102410.09;;;1.82
76381;BMP280;65202;52.520;10.528;2023-01-28T07:13:07;102408.88;;;1.79
76381;BMP280;65202;52.520;10.528;2023-01-28T07:15:35;102400.84;;;1.73
76381;BMP280;65202;52.520;10.528;2023-01-28T07:18:03;102400.22;;;1.82
76381;BMP280;65202;52.520;10.528;2023-01-28T07:20:31;102403.38;;;1.81
76381;BMP280;65202;52.520;10.528;2023-01-28T07:22:58;102400.44;;;1.92
76381;BMP280;65202;52.520;10.528;2023-01-28T07:25:25;102407.00;;;1.91
76381;BMP280;65202;52.520;10.528;2023-01-28T07:27:52;102398.91;;;1.70
76381;BMP280;65202;52.520;10.528;2023-01-28T07:30:20;102408.59;;;1.76
76381;BMP280;65202;52.520;10.528;2023-01-28T07:32:52;102401.06;;;1.83
76381;BMP280;65202;52.520;10.528;2023-01-28T07:35:21;102406.59;;;1.95
76381;BMP280;65202;52.520;10.528;2023-01-28T07:37:53;102402.03;;;1.61
76381;BMP280;65202;52.520;10.528;2023-01-28T07:40:22;102406.81;;;1.75
76381;BMP280;65202;52.520;10.528;2023-01-28T07:42:51;102406.88;;;1.52
76381;BMP280;65202;52.520;10.528;2023-01-28T07:45:20;102410.50;;;1.63
76381;BMP280;65202;52.520;10.528;2023-01-28T07:47:56;102408.25;;;1.73
76381;BMP280;65202;52.520;10.528;2023-01-28T07:50:24;102410.09;;;1.82
76381;BMP280;65202;52.520;10.528;2023-01-28T07:52:52;102420.34;;;1.93
76381;BMP280;65202;52.520;10.528;2023-01-28T07:55:20;102423.47;;;1.99
76381;BMP280;65202;52.520;10.528;2023-01-28T07:57:52;102429.13;;;1.98
76381;BMP280;65202;52.520;10.528;2023-01-28T08:00:22;102428.97;;;1.82
76381;BMP280;65202;52.520;10.528;2023-01-28T08:02:55;102436.63;;;1.91
76381;BMP280;65202;52.520;10.528;2023-01-28T08:05:24;102433.09;;;1.89
76381;BMP280;65202;52.520;10.528;2023-01-28T08:07:53;102427.88;;;1.87
76381;BMP280;65202;52.520;10.528;2023-01-28T08:10:20;102437.25;;;1.97
76381;BMP280;65202;52.520;10.528;2023-01-28T08:12:55;102441.78;;;2.01
76381;BMP280;65202;52.520;10.528;2023-01-28T08:15:25;102450.56;;;1.91
76381;BMP280;65202;52.520;10.528;2023-01-28T08:17:53;102440.59;;;1.83
76381;BMP280;65202;52.520;10.528;2023-01-28T08:20:23;102443.06;;;1.98
76381;BMP280;65202;52.520;10.528;2023-01-28T08:22:52;102443.38;;;2.01
76381;BMP280;65202;52.520;10.528;2023-01-28T08:25:20;102448.81;;;2.05
76381;BMP280;65202;52.520;10.528;2023-01-28T08:27:47;102451.19;;;1.97
76381;BMP280;65202;52.520;10.528;2023-01-28T08:30:14;102452.06;;;1.97
76381;BMP280;65202;52.520;10.528;2023-01-28T08:32:42;102453.81;;;1.98
76381;BMP280;65202;52.520;10.528;2023-01-28T08:35:09;102467.38;;;2.02
76381;BMP280;65202;52.520;10.528;2023-01-28T08:37:36;102457.16;;;2.14
76381;BMP280;65202;52.520;10.528;2023-01-28T08:40:04;102462.28;;;2.00
76381;BMP280;65202;52.520;10.528;2023-01-28T08:42:32;102459.81;;;2.00
76381;BMP280;65202;52.520;10.528;2023-01-28T08:44:59;102454.75;;;2.07
76381;BMP280;65202;52.520;10.528;2023-01-28T08:47:26;102454.34;;;2.11
76381;BMP280;65202;52.520;10.528;2023-01-28T08:49:53;102467.03;;;1.99
76381;BMP280;65202;52.520;10.528;2023-01-28T08:52:20;102478.13;;;2.02
76381;BMP280;65202;52.520;10.528;2023-01-28T08:54:47;102476.53;;;2.03
76381;BMP280;65202;52.520;10.528;2023-01-28T08:57:14;102487.31;;;1.88
76381;BMP280;65202;52.520;10.528;2023-01-28T08:59:42;102484.41;;;2.07
76381;BMP280;65202;52.520;10.528;2023-01-28T09:02:12;102491.09;;;2.39
76381;BMP280;65202;52.520;10.528;2023-01-28T09:04:57;102494.94;;;2.29
76381;BMP280;65202;52.520;10.528;2023-01-28T09:07:25;102500.44;;;2.26
76381;BMP280;65202;52.520;10.528;2023-01-28T09:09:52;102493.47;;;2.46
76381;BMP280;65202;52.520;10.528;2023-01-28T09:12:19;102497.09;;;2.26
76381;BMP280;65202;52.520;10.528;2023-01-28T09:14:46;102492.97;;;2.18
76381;BMP280;65202;52.520;10.528;2023-01-28T09:17:13;102496.00;;;2.15
76381;BMP280;65202;52.520;10.528;2023-01-28T09:19:40;102497.72;;;2.16
76381;BMP280;65202;52.520;10.528;2023-01-28T09:22:08;102502.75;;;2.25
76381;BMP280;65202;52.520;10.528;2023-01-28T09:24:35;102502.78;;;1.94
76381;BMP280;65202;52.520;10.528;2023-01-28T09:27:05;102507.38;;;2.06
76381;BMP280;65202;52.520;10.528;2023-01-28T09:29:33;102521.06;;;2.11
76381;BMP280;65202;52.520;10.528;2023-01-28T09:32:00;102519.91;;;2.23
76381;BMP280;65202;52.520;10.528;2023-01-28T09:34:28;102531.31;;;2.14
76381;BMP280;65202;52.520;10.528;2023-01-28T09:36:55;102519.75;;;2.22
76381;BMP280;65202;52.520;10.528;2023-01-28T09:39:23;102525.66;;;2.15
76381;BMP280;65202;52.520;10.528;2023-01-28T09:45:24;102525.16;;;2.26
76381;BMP280;65202;52.520;10.528;2023-01-28T09:48:03;102532.72;;;2.43
76381;BMP280;65202;52.520;10.528;2023-01-28T09:50:41;102535.38;;;2.29
76381;BMP280;65202;52.520;10.528;2023-01-28T09:56:00;102536.53;;;2.33
76381;BMP280;65202;52.520;10.528;2023-01-28T09:58:30;102545.00;;;2.19
76381;BMP280;65202;52.520;10.528;2023-01-28T10:01:37;102549.16;;;2.27
76381;BMP280;65202;52.520;10.528;2023-01-28T10:04:36;102536.00;;;2.20
76381;BMP280;65202;52.520;10.528;2023-01-28T10:07:21;102534.06;;;2.33
76381;BMP280;65202;52.520;10.528;2023-01-28T10:10:08;102527.88;;;2.05
76381;BMP280;65202;52.520;10.528;2023-01-28T10:12:47;102528.56;;;2.20
76381;BMP280;65202;52.520;10.528;2023-01-28T10:18:44;102519.63;;;2.29
76381;BMP280;65202;52.520;10.528;2023-01-28T10:21:24;102532.66;;;2.19
76381;BMP280;65202;52.520;10.528;2023-01-28T10:26:57;102518.69;;;2.04
76381;BMP280;65202;52.520;10.528;2023-01-28T10:29:33;102525.06;;;2.02
76381;BMP280;65202;52.520;10.528;2023-01-28T10:32:22;102523.53;;;2.11
76381;BMP280;65202;52.520;10.528;2023-01-28T10:35:00;102511.78;;;2.24
76381;BMP280;65202;52.520;10.528;2023-01-28T10:37:33;102515.25;;;2.42
76381;BMP280;65202;52.520;10.528;2023-01-28T10:40:03;102506.41;;;2.28
76381;BMP280;65202;52.520;10.528;2023-01-28T10:42:34;102515.09;;;2.25
76381;BMP280;65202;52.520;10.528;2023-01-28T10:45:22;102524.59;;;2.13
76381;BMP280;65202;52.520;10.528;2023-01-28T10:48:01;102512.72;;;2.18
76381;BMP280;65202;52.520;10.528;2023-01-28T10:50:58;102512.94;;;2.28
76381;BMP280;65202;52.520;10.528;2023-01-28T10:53:42;102510.88;;;2.24
76381;BMP280;65202;52.520;10.528;2023-01-28T10:56:22;102507.06;;;2.34
76381;BMP280;65202;52.520;10.528;2023-01-28T11:01:45;102525.63;;;2.31
76381;BMP280;65202;52.520;10.528;2023-01-28T11:04:23;102515.25;;;2.26
76381;BMP280;65202;52.520;10.528;2023-01-28T11:09:35;102510.41;;;2.19
76381;BMP280;65202;52.520;10.528;2023-01-28T11:14:50;102519.16;;;1.93
76381;BMP280;65202;52.520;10.528;2023-01-28T11:17:30;102525.88;;;2.10
76381;BMP280;65202;52.520;10.528;2023-01-28T11:20:12;102525.00;;;1.94
76381;BMP280;65202;52.520;10.528;2023-01-28T11:22:47;102525.16;;;2.11
76381;BMP280;65202;52.520;10.528;2023-01-28T11:28:06;102511.19;;;2.11
76381;BMP280;65202;52.520;10.528;2023-01-28T11:30:41;102504.97;;;2.30
76381;BMP280;65202;52.520;10.528;2023-01-28T11:35:55;102495.72;;;2.36
76381;BMP280;65202;52.520;10.528;2023-01-28T11:38:24;102510.88;;;2.08
76381;BMP280;65202;52.520;10.528;2023-01-28T11:40:54;102508.97;;;2.21
76381;BMP280;65202;52.520;10.528;2023-01-28T11:43:25;102502.66;;;2.16
76381;BMP280;65202;52.520;10.528;2023-01-28T11:48:40;102482.81;;;2.23
76381;BMP280;65202;52.520;10.528;2023-01-28T11:54:35;102483.06;;;2.33
76381;BMP280;65202;52.520;10.528;2023-01-28T11:57:20;102487.44;;;2.05
76381;BMP280;65202;52.520;10.528;2023-01-28T12:03:30;102470.53;;;2.16
76381;BMP280;65202;52.520;10.528;2023-01-28T12:06:17;102465.22;;;2.05
76381;BMP280;65202;52.520;10.528;2023-01-28T12:09:16;102460.13;;;2.03
76381;BMP280;65202;52.520;10.528;2023-01-28T12:12:00;102458.94;;;2.15
76381;BMP280;65202;52.520;10.528;2023-01-28T12:21:06;102450.56;;;2.46
76381;BMP280;65202;52.520;10.528;2023-01-28T12:29:55;102429.50;;;2.49
76381;BMP280;65202;52.520;10.528;2023-01-28T12:33:00;102416.09;;;2.71
76381;BMP280;65202;52.520;10.528;2023-01-28T12:36:15;102399.34;;;2.68
76381;BMP280;65202;52.520;10.528;2023-01-28T12:39:37;102396.03;;;2.44
76381;BMP280;65202;52.520;10.528;2023-01-28T12:42:37;102380.97;;;2.58
76381;BMP280;65202;52.520;10.528;2023-01-28T12:45:32;102363.69;;;2.66
76381;BMP280;65202;52.520;10.528;2023-01-28T12:48:31;102348.00;;;2.66
76381;BMP280;65202;52.520;10.528;2023-01-28T12:51:11;102346.25;;;3.14
76381;BMP280;65202;52.520;10.528;2023-01-28T12:53:46;102339.63;;;3.72
76381;BMP280;65202;52.520;10.528;2023-01-28T12:56:33;102331.50;;;3.73
76381;BMP280;65202;52.520;10.528;2023-01-28T12:59:13;102327.84;;;3.78
76381;BMP280;65202;52.520;10.528;2023-01-28T13:01:52;102323.31;;;3.74
76381;BMP280;65202;52.520;10.528;2023-01-28T13:04:37;102325.66;;;3.81
76381;BMP280;65202;52.520;10.528;2023-01-28T13:07:40;102313.81;;;4.04
76381;BMP280;65202;52.520;10.528;2023-01-28T13:13:35;102343.13;;;3.82
76381;BMP280;65202;52.520;10.528;2023-01-28T13:16:07;102355.94;;;3.70
76381;BMP280;65202;52.520;10.528;2023-01-28T13:24:16;102364.69;;;3.58
76381;BMP280;65202;52.520;10.528;2023-01-28T13:26:56;102348.38;;;3.60
76381;BMP280;65202;52.520;10.528;2023-01-28T13:31:53;102373.88;;;3.68
76381;BMP280;65202;52.520;10.528;2023-01-28T13:34:37;102369.94;;;3.95
76381;BMP280;65202;52.520;10.528;2023-01-28T13:37:28;102372.84;;;4.08
76381;BMP280;65202;52.520;10.528;2023-01-28T13:40:02;102359.00;;;4.10
76381;BMP280;65202;52.520;10.528;2023-01-28T13:43:00;102363.25;;;4.11
76381;BMP280;65202;52.520;10.528;2023-01-28T13:45:30;102362.59;;;4.38
76381;BMP280;65202;52.520;10.528;2023-01-28T13:48:18;102378.38;;;4.31
76381;BMP280;65202;52.520;10.528;2023-01-28T13:50:54;102380.72;;;3.95
76381;BMP280;65202;52.520;10.528;2023-01-28T13:53:38;102380.06;;;4.48
76381;BMP280;65202;52.520;10.528;2023-01-28T13:56:21;102375.91;;;4.31
76381;BMP280;65202;52.520;10.528;2023-01-28T13:58:57;102391.81;;;3.99
76381;BMP280;65202;52.520;10.528;2023-01-28T14:02:24;102399.31;;;3.41
76381;BMP280;65202;52.520;10.528;2023-01-28T14:09:21;102412.34;;;3.15
76381;BMP280;65202;52.520;10.528;2023-01-28T14:18:11;102374.75;;;3.76
76381;BMP280;65202;52.520;10.528;2023-01-28T14:20:48;102354.34;;;3.96
76381;BMP280;65202;52.520;10.528;2023-01-28T14:23:18;102352.00;;;3.38
76381;BMP280;65202;52.520;10.528;2023-01-28T14:26:02;102344.72;;;3.48
76381;BMP280;65202;52.520;10.528;2023-01-28T14:31:32;102324.19;;;3.66
76381;BMP280;65202;52.520;10.528;2023-01-28T14:37:10;102336.13;;;3.70
76381;BMP280;65202;52.520;10.528;2023-01-28T14:39:52;102337.00;;;3.54
76381;BMP280;65202;52.520;10.528;2023-01-28T14:42:25;102347.75;;;3.37
76381;BMP280;65202;52.520;10.528;2023-01-28T14:51:03;102362.31;;;3.26
76381;BMP280;65202;52.520;10.528;2023-01-28T14:59:29;102359.28;;;2.88
76381;BMP280;65202;52.520;10.528;2023-01-28T15:02:22;102362.22;;;2.92
76381;BMP280;65202;52.520;10.528;2023-01-28T15:04:53;102365.16;;;2.97
76381;BMP280;65202;52.520;10.528;2023-01-28T15:07:23;102377.72;;;2.83
76381;BMP280;65202;52.520;10.528;2023-01-28T15:10:00;102376.34;;;2.61
76381;BMP280;65202;52.520;10.528;2023-01-28T15:12:32;102383.97;;;2.47
76381;BMP280;65202;52.520;10.528;2023-01-28T15:15:08;102391.56;;;3.21
76381;BMP280;65202;52.520;10.528;2023-01-28T15:17:37;102390.59;;;3.28
76381;BMP280;65202;52.520;10.528;2023-01-28T15:20:06;102388.25;;;3.29
76381;BMP280;65202;52.520;10.528;2023-01-28T15:22:34;102403.44;;;2.68
76381;BMP280;65202;52.520;10.528;2023-01-28T15:25:02;102397.19;;;2.24
76381;BMP280;65202;52.520;10.528;2023-01-28T15:27:29;102390.13;;;2.35
76381;BMP280;65202;52.520;10.528;2023-01-28T15:29:58;102391.03;;;2.36
76381;BMP280;65202;52.520;10.528;2023-01-28T15:32:28;102394.25;;;2.19
76381;BMP280;65202;52.520;10.528;2023-01-28T15:34:59;102397.03;;;2.22
76381;BMP280;65202;52.520;10.528;2023-01-28T15:37:27;102397.66;;;1.89
76381;BMP280;65202;52.520;10.528;2023-01-28T15:40:02;102392.06;;;1.98
76381;BMP280;65202;52.520;10.528;2023-01-28T15:42:32;102393.59;;;1.89
76381;BMP280;65202;52.520;10.528;2023-01-28T15:45:00;102394.53;;;1.98
76381;BMP280;65202;52.520;10.528;2023-01-28T15:47:30;102394.56;;;1.83
76381;BMP280;65202;52.520;10.528;2023-01-28T15:50:05;102401.06;;;1.83
76381;BMP280;65202;52.520;10.528;2023-01-28T15:52:41;102402.19;;;1.78
76381;BMP280;65202;52.520;10.528;2023-01-28T15:55:29;102404.09;;;1.65
76381;BMP280;65202;52.520;10.528;2023-01-28T15:58:27;102405.72;;;1.64
76381;BMP280;65202;52.520;10.528;2023-01-28T16:03:36;102399.63;;;1.54
76381;BMP280;65202;52.520;10.528;2023-01-28T16:06:16;102408.56;;;1.45
76381;BMP280;65202;52.520;10.528;2023-01-28T16:08:53;102413.34;;;1.43
76381;BMP280;65202;52.520;10.528;2023-01-28T16:11:31;102410.41;;;1.54
76381;BMP280;65202;52.520;10.528;2023-01-28T16:14:01;102420.84;;;1.52
76381;BMP280;65202;52.520;10.528;2023-01-28T16:16:34;102439.13;;;1.54
76381;BMP280;65202;52.520;10.528;2023-01-28T16:19:05;102449.66;;;1.60
76381;BMP280;65202;52.520;10.528;2023-01-28T16:21:36;102437.41;;;1.53
76381;BMP280;65202;52.520;10.528;2023-01-28T16:24:22;102436.63;;;1.23
76381;BMP280;65202;52.520;10.528;2023-01-28T16:26:59;102437.41;;;1.53